createdAt,value
2018-03-20T00:00:16.030Z,17.05
2018-03-20T00:01:18.549Z,14.35
2018-03-20T00:02:21.124Z,12.60
2018-03-20T00:03:24.413Z,16.67
2018-03-20T00:04:27.750Z,20.40
2018-03-20T00:05:30.271Z,15.45
2018-03-20T00:06:33.559Z,18.77
2018-03-20T00:07:36.083Z,19.15
2018-03-20T00:08:38.614Z,15.15
2018-03-20T00:09:41.168Z,16.00
2018-03-20T00:10:43.690Z,14.40
2018-03-20T00:11:46.234Z,13.15
2018-03-20T00:12:48.759Z,13.10
2018-03-20T00:13:51.325Z,12.82
2018-03-20T00:14:53.893Z,12.40
2018-03-20T00:15:56.420Z,16.80
2018-03-20T00:16:58.945Z,12.75
2018-03-20T00:18:01.469Z,13.93
2018-03-20T00:19:04.774Z,12.93
2018-03-20T00:20:07.342Z,13.50
2018-03-20T00:21:09.910Z,10.18
2018-03-20T00:22:12.438Z,9.05
2018-03-20T00:23:14.966Z,11.43
2018-03-20T00:24:17.507Z,11.23
2018-03-20T00:25:20.027Z,11.43
2018-03-20T00:26:22.587Z,13.82
2018-03-20T00:27:25.150Z,16.77
2018-03-20T00:28:27.673Z,11.35
2018-03-20T00:29:30.208Z,12.40
2018-03-20T00:30:32.729Z,10.70
2018-03-20T00:31:35.313Z,10.75
2018-03-20T00:32:37.833Z,12.73
2018-03-20T00:33:40.370Z,11.55
2018-03-20T00:34:42.910Z,10.85
2018-03-20T00:35:45.438Z,9.23
2018-03-20T00:36:47.994Z,14.65
2018-03-20T00:37:51.291Z,13.15
2018-03-20T00:38:53.839Z,10.23
2018-03-20T00:39:56.357Z,10.15
2018-03-20T00:40:58.890Z,12.02
2018-03-20T00:42:01.454Z,8.98
2018-03-20T00:43:03.994Z,11.52
2018-03-20T00:44:06.577Z,13.20
2018-03-20T00:45:09.898Z,11.65
2018-03-20T00:46:12.410Z,8.85
2018-03-20T00:47:14.946Z,12.27
2018-03-20T00:48:17.589Z,9.77
2018-03-20T00:49:20.110Z,13.18
2018-03-20T00:50:22.638Z,12.30
2018-03-20T00:51:25.965Z,17.35
2018-03-20T00:52:29.274Z,12.40
2018-03-20T00:53:31.808Z,12.65
2018-03-20T00:54:34.344Z,13.52
2018-03-20T00:55:36.868Z,11.77
2018-03-20T00:56:39.443Z,12.50
2018-03-20T00:57:41.977Z,11.60
2018-03-20T00:58:45.273Z,14.13
2018-03-20T00:59:48.574Z,13.73
2018-03-20T01:00:51.108Z,15.65
2018-03-20T01:01:54.442Z,12.68
2018-03-20T01:02:56.957Z,13.52
2018-03-20T01:03:59.478Z,12.48
2018-03-20T01:05:02.018Z,14.30
2018-03-20T01:06:04.553Z,15.55
2018-03-20T01:07:07.180Z,12.18
2018-03-20T01:08:09.712Z,15.30
2018-03-20T01:09:12.259Z,14.60
2018-03-20T01:10:15.609Z,13.27
2018-03-20T01:11:18.177Z,10.73
2018-03-20T01:12:20.701Z,13.35
2018-03-20T01:13:23.222Z,13.48
2018-03-20T01:14:25.755Z,13.32
2018-03-20T01:15:28.300Z,14.27
2018-03-20T01:16:30.816Z,15.18
2018-03-20T01:17:33.383Z,14.77
2018-03-20T01:18:35.891Z,15.68
2018-03-20T01:19:38.411Z,15.70
2018-03-20T01:20:40.986Z,15.07
2018-03-20T01:21:43.498Z,11.95
2018-03-20T01:22:46.017Z,15.98
2018-03-20T01:23:48.546Z,14.80
2018-03-20T01:24:51.074Z,13.50
2018-03-20T01:25:54.411Z,15.80
2018-03-20T01:26:56.950Z,12.05
2018-03-20T01:27:59.477Z,16.92
2018-03-20T01:29:02.046Z,16.75
2018-03-20T01:30:04.584Z,14.95
2018-03-20T01:31:07.138Z,12.73
2018-03-20T01:32:09.657Z,13.80
2018-03-20T01:33:12.992Z,15.98
2018-03-20T01:34:15.512Z,13.05
2018-03-20T01:35:18.792Z,13.65
2018-03-20T01:36:22.102Z,11.50
2018-03-20T01:37:24.644Z,11.40
2018-03-20T01:38:27.988Z,10.18
2018-03-20T01:39:30.512Z,11.48
2018-03-20T01:40:33.028Z,8.15
2018-03-20T01:41:35.602Z,9.52
2018-03-20T01:42:38.124Z,11.43
2018-03-20T01:43:40.685Z,11.70
2018-03-20T01:44:43.225Z,15.88
2018-03-20T01:45:46.568Z,9.18
2018-03-20T01:46:49.096Z,6.87
2018-03-20T01:47:51.619Z,9.45
2018-03-20T01:48:54.138Z,9.80
2018-03-20T01:49:56.664Z,7.32
2018-03-20T01:50:59.221Z,8.73
2018-03-20T01:52:01.742Z,14.75
2018-03-20T01:53:16.011Z,12.68
2018-03-20T01:54:18.535Z,8.98
2018-03-20T01:55:21.055Z,12.55
2018-03-20T01:56:23.613Z,11.05
2018-03-20T01:57:26.176Z,9.75
2018-03-20T01:58:28.709Z,10.15
2018-03-20T01:59:31.262Z,10.02
2018-03-20T02:00:33.783Z,11.45
2018-03-20T02:01:36.311Z,12.75
2018-03-20T02:02:38.873Z,10.88
2018-03-20T02:03:41.393Z,9.70
2018-03-20T02:04:43.934Z,11.48
2018-03-20T02:05:46.477Z,10.90
2018-03-20T02:06:48.999Z,9.15
2018-03-20T02:07:51.589Z,10.75
2018-03-20T02:08:54.117Z,9.63
2018-03-20T02:09:56.634Z,9.90
2018-03-20T02:10:59.172Z,11.10
2018-03-20T02:12:02.518Z,9.95
2018-03-20T02:13:05.119Z,9.95
2018-03-20T02:14:07.657Z,11.02
2018-03-20T02:15:10.186Z,9.25
2018-03-20T02:16:12.721Z,10.35
2018-03-20T02:17:16.024Z,8.73
2018-03-20T02:18:18.586Z,9.35
2018-03-20T02:19:21.102Z,13.38
2018-03-20T02:20:23.613Z,7.10
2018-03-20T02:21:26.131Z,8.77
2018-03-20T02:22:28.650Z,9.75
2018-03-20T02:23:31.227Z,6.78
2018-03-20T02:24:33.746Z,7.22
2018-03-20T02:25:36.278Z,6.72
2018-03-20T02:26:38.831Z,5.28
2018-03-20T02:27:41.355Z,7.85
2018-03-20T02:28:43.886Z,7.93
2018-03-20T02:29:46.422Z,7.57
2018-03-20T02:30:48.955Z,10.02
2018-03-20T02:31:52.295Z,7.47
2018-03-20T02:32:54.818Z,11.25
2018-03-20T02:33:57.354Z,11.10
2018-03-20T02:34:59.893Z,8.90
2018-03-20T02:36:02.409Z,9.95
2018-03-20T02:37:05.745Z,8.05
2018-03-20T02:38:08.269Z,8.35
2018-03-20T02:39:11.581Z,6.68
2018-03-20T02:40:14.113Z,12.30
2018-03-20T02:41:17.510Z,11.32
2018-03-20T02:42:20.065Z,11.45
2018-03-20T02:43:23.351Z,9.57
2018-03-20T02:44:26.686Z,12.68
2018-03-20T02:45:29.214Z,11.50
2018-03-20T02:46:34.607Z,8.20
2018-03-20T02:47:37.126Z,10.60
2018-03-20T02:48:39.684Z,16.67
2018-03-20T02:49:42.207Z,11.65
2018-03-20T02:50:44.733Z,8.77
2018-03-20T02:51:47.269Z,11.48
2018-03-20T02:52:49.823Z,9.23
2018-03-20T02:53:53.151Z,8.77
2018-03-20T02:54:55.688Z,9.60
2018-03-20T02:55:58.225Z,6.68
2018-03-20T02:57:00.748Z,8.77
2018-03-20T02:58:03.294Z,11.48
2018-03-20T02:59:05.844Z,8.52
2018-03-20T03:00:09.164Z,11.12
2018-03-20T03:01:11.684Z,11.30
2018-03-20T03:02:14.205Z,6.28
2018-03-20T03:03:16.733Z,8.80
2018-03-20T03:04:19.324Z,11.02
2018-03-20T03:05:21.894Z,7.78
2018-03-20T03:06:24.416Z,7.72
2018-03-20T03:07:26.933Z,12.25
2018-03-20T03:08:29.476Z,7.37
2018-03-20T03:09:32.057Z,8.90
2018-03-20T03:10:35.355Z,6.68
2018-03-20T03:11:37.882Z,8.98
2018-03-20T03:12:41.171Z,9.43
2018-03-20T03:13:43.692Z,9.00
2018-03-20T03:14:46.265Z,8.05
2018-03-20T03:15:48.814Z,7.53
2018-03-20T03:16:51.330Z,8.07
2018-03-20T03:17:54.665Z,6.40
2018-03-20T03:18:57.190Z,6.45
2018-03-20T03:19:59.711Z,11.98
2018-03-20T03:21:02.230Z,8.30
2018-03-20T03:22:04.747Z,9.02
2018-03-20T03:23:07.331Z,13.82
2018-03-20T03:24:10.627Z,9.70
2018-03-20T03:25:13.911Z,8.85
2018-03-20T03:26:16.445Z,6.20
2018-03-20T03:27:19.098Z,7.85
2018-03-20T03:28:21.650Z,8.15
2018-03-20T03:29:24.205Z,8.20
2018-03-20T03:30:26.773Z,6.45
2018-03-20T03:31:29.309Z,8.52
2018-03-20T03:32:32.597Z,9.32
2018-03-20T03:33:35.161Z,7.72
2018-03-20T03:34:38.448Z,7.50
2018-03-20T03:35:40.980Z,7.40
2018-03-20T03:36:43.552Z,11.52
2018-03-20T03:37:46.070Z,9.70
2018-03-20T03:38:48.647Z,7.90
2018-03-20T03:39:51.178Z,8.45
2018-03-20T03:40:54.501Z,9.88
2018-03-20T03:41:57.036Z,10.57
2018-03-20T03:42:59.556Z,6.97
2018-03-20T03:44:02.093Z,6.62
2018-03-20T03:45:04.630Z,10.25
2018-03-20T03:46:07.197Z,8.15
2018-03-20T03:47:09.730Z,9.95
2018-03-20T03:48:12.249Z,8.02
2018-03-20T03:49:14.785Z,12.70
2018-03-20T03:50:18.110Z,8.85
2018-03-20T03:51:20.691Z,6.75
2018-03-20T03:52:26.076Z,7.53
2018-03-20T03:53:29.374Z,8.95
2018-03-20T03:54:31.925Z,8.23
2018-03-20T03:55:35.222Z,10.43
2018-03-20T03:56:37.740Z,6.80
2018-03-20T03:57:40.269Z,15.38
2018-03-20T03:58:42.847Z,11.35
2018-03-20T03:59:45.377Z,4.87
2018-03-20T04:00:48.661Z,8.32
2018-03-20T04:01:51.997Z,6.97
2018-03-20T04:02:54.517Z,9.20
2018-03-20T04:03:57.043Z,7.00
2018-03-20T04:04:59.562Z,4.75
2018-03-20T04:06:02.122Z,10.02
2018-03-20T04:07:04.644Z,9.05
2018-03-20T04:08:07.162Z,8.38
2018-03-20T04:09:09.990Z,8.40
2018-03-20T04:10:12.513Z,6.78
2018-03-20T04:11:15.067Z,8.23
2018-03-20T04:12:17.625Z,9.32
2018-03-20T04:13:20.144Z,7.85
2018-03-20T04:14:22.682Z,10.20
2018-03-20T04:15:25.976Z,13.32
2018-03-20T04:16:28.549Z,8.80
2018-03-20T04:17:31.058Z,8.80
2018-03-20T04:18:34.345Z,8.00
2018-03-20T04:19:37.628Z,8.38
2018-03-20T04:20:40.922Z,6.72
2018-03-20T04:21:43.491Z,9.40
2018-03-20T04:22:46.026Z,7.03
2018-03-20T04:23:48.546Z,8.02
2018-03-20T04:24:51.150Z,4.85
2018-03-20T04:25:53.670Z,8.98
2018-03-20T04:26:56.216Z,11.95
2018-03-20T04:27:58.769Z,9.48
2018-03-20T04:29:02.099Z,7.07
2018-03-20T04:30:04.631Z,5.93
2018-03-20T04:31:07.910Z,6.25
2018-03-20T04:32:11.216Z,16.33
2018-03-20T04:33:13.732Z,8.13
2018-03-20T04:34:16.282Z,7.12
2018-03-20T04:35:18.808Z,9.15
2018-03-20T04:36:21.374Z,8.70
2018-03-20T04:37:23.954Z,11.35
2018-03-20T04:38:26.476Z,7.05
2018-03-20T04:39:28.996Z,5.57
2018-03-20T04:40:31.701Z,11.12
2018-03-20T04:41:34.262Z,5.53
2018-03-20T04:42:36.797Z,7.57
2018-03-20T04:43:39.317Z,9.20
2018-03-20T04:44:41.833Z,7.30
2018-03-20T04:45:44.396Z,7.40
2018-03-20T04:46:46.926Z,5.55
2018-03-20T04:47:50.218Z,11.07
2018-03-20T04:48:52.859Z,10.95
2018-03-20T04:49:56.253Z,8.10
2018-03-20T04:50:59.589Z,6.57
2018-03-20T04:52:02.122Z,10.65
2018-03-20T04:53:04.641Z,7.82
2018-03-20T04:54:07.169Z,11.45
2018-03-20T04:55:09.698Z,6.93
2018-03-20T04:56:12.248Z,7.68
2018-03-20T04:57:14.778Z,14.18
2018-03-20T04:58:17.301Z,5.78
2018-03-20T04:59:20.665Z,22.00
2018-03-20T05:00:23.221Z,8.43
2018-03-20T05:01:25.742Z,11.50
2018-03-20T05:02:28.302Z,9.73
2018-03-20T05:03:30.834Z,11.25
2018-03-20T05:04:33.388Z,6.85
2018-03-20T05:05:35.902Z,8.45
2018-03-20T05:06:38.434Z,14.13
2018-03-20T05:07:41.009Z,10.32
2018-03-20T05:08:43.545Z,11.12
2018-03-20T05:09:46.064Z,6.37
2018-03-20T05:10:49.345Z,8.55
2018-03-20T05:11:51.873Z,7.03
2018-03-20T05:12:54.547Z,7.43
2018-03-20T05:13:57.077Z,7.50
2018-03-20T05:14:59.610Z,9.55
2018-03-20T05:16:02.895Z,8.13
2018-03-20T05:17:06.186Z,6.78
2018-03-20T05:18:08.734Z,7.03
2018-03-20T05:19:14.502Z,8.55
2018-03-20T05:20:22.661Z,7.12
2018-03-20T05:21:30.790Z,8.88
2018-03-20T05:22:39.069Z,11.05
2018-03-20T05:23:47.995Z,7.25
2018-03-20T05:24:51.316Z,10.25
2018-03-20T05:25:53.844Z,8.52
2018-03-20T05:26:57.198Z,17.45
2018-03-20T05:27:59.721Z,10.18
2018-03-20T05:29:02.279Z,12.20
2018-03-20T05:30:04.819Z,8.73
2018-03-20T05:31:08.096Z,9.65
2018-03-20T05:32:10.618Z,11.23
2018-03-20T05:33:13.181Z,11.40
2018-03-20T05:34:15.697Z,10.75
2018-03-20T05:35:19.018Z,13.50
2018-03-20T05:36:21.549Z,14.43
2018-03-20T05:37:24.189Z,10.98
2018-03-20T05:38:26.714Z,9.35
2018-03-20T05:39:29.246Z,12.10
2018-03-20T05:40:31.768Z,13.50
2018-03-20T05:41:34.284Z,7.32
2018-03-20T05:42:37.807Z,10.13
2018-03-20T05:43:40.332Z,13.60
2018-03-20T05:44:42.861Z,10.00
2018-03-20T05:45:45.388Z,9.38
2018-03-20T05:48:35.686Z,12.50
2018-03-20T05:49:43.989Z,11.30
2018-03-20T05:51:07.379Z,15.32
2018-03-20T05:52:09.913Z,13.25
2018-03-20T05:53:12.476Z,10.88
2018-03-20T05:54:14.999Z,11.75
2018-03-20T05:55:17.561Z,14.98
2018-03-20T05:56:20.072Z,12.90
2018-03-20T05:57:22.592Z,10.93
2018-03-20T05:58:25.169Z,12.13
2018-03-20T05:59:27.841Z,12.00
2018-03-20T06:00:30.360Z,12.98
2018-03-20T06:01:32.897Z,13.85
2018-03-20T06:02:36.184Z,14.73
2018-03-20T06:03:39.505Z,14.05
2018-03-20T06:04:42.051Z,14.00
2018-03-20T06:05:44.602Z,14.90
2018-03-20T06:06:47.133Z,11.52
2018-03-20T06:07:49.667Z,20.02
2018-03-20T06:08:52.241Z,12.90
2018-03-20T06:09:54.762Z,12.15
2018-03-20T06:10:58.049Z,16.15
2018-03-20T06:12:00.578Z,12.77
2018-03-20T06:13:03.096Z,12.30
2018-03-20T06:14:05.669Z,12.68
2018-03-20T06:15:08.192Z,14.32
2018-03-20T06:16:11.496Z,17.02
2018-03-20T06:17:14.802Z,14.77
2018-03-20T06:18:17.325Z,21.15
2018-03-20T06:19:19.883Z,17.42
2018-03-20T06:20:22.411Z,14.07
2018-03-20T06:21:24.950Z,15.80
2018-03-20T06:22:27.509Z,11.80
2018-03-20T06:23:30.797Z,17.98
2018-03-20T06:24:33.358Z,13.93
2018-03-20T06:25:36.657Z,13.70
2018-03-20T06:26:39.181Z,18.27
2018-03-20T06:27:41.712Z,13.98
2018-03-20T06:28:44.243Z,17.40
2018-03-20T06:29:47.582Z,17.08
2018-03-20T06:30:50.118Z,18.08
2018-03-20T06:31:52.659Z,16.77
2018-03-20T06:32:55.954Z,19.90
2018-03-20T06:33:58.485Z,19.87
2018-03-20T06:35:01.882Z,31.35
2018-03-20T06:36:05.181Z,29.92
2018-03-20T06:37:07.718Z,23.30
2018-03-20T06:38:10.253Z,18.08
2018-03-20T06:39:12.797Z,27.25
2018-03-20T06:40:15.361Z,50.95
2018-03-20T06:41:17.885Z,22.55
2018-03-20T06:42:20.410Z,21.02
2018-03-20T06:43:22.953Z,20.65
2018-03-20T06:44:25.511Z,27.95
2018-03-20T06:45:28.833Z,17.67
2018-03-20T06:46:31.370Z,14.90
2018-03-20T06:47:33.914Z,18.90
2018-03-20T06:48:37.244Z,29.73
2018-03-20T06:49:39.764Z,29.35
2018-03-20T06:50:43.065Z,18.42
2018-03-20T06:51:45.629Z,15.55
2018-03-20T06:52:48.165Z,19.92
2018-03-20T06:53:50.701Z,23.67
2018-03-20T06:54:53.237Z,21.55
2018-03-20T06:55:55.765Z,22.70
2018-03-20T06:56:58.325Z,15.50
2018-03-20T06:58:00.845Z,17.52
2018-03-20T06:59:03.506Z,13.50
2018-03-20T07:00:06.033Z,22.65
2018-03-20T07:01:08.573Z,19.35
2018-03-20T07:02:11.130Z,14.57
2018-03-20T07:03:13.670Z,16.42
2018-03-20T07:04:16.232Z,14.02
2018-03-20T07:05:18.757Z,17.02
2018-03-20T07:06:21.294Z,16.37
2018-03-20T07:07:23.818Z,16.58
2018-03-20T07:08:27.150Z,16.65
2018-03-20T07:09:29.681Z,17.08
2018-03-20T07:10:32.220Z,13.95
2018-03-20T07:11:34.745Z,13.60
2018-03-20T07:12:37.269Z,15.68
2018-03-20T07:13:40.598Z,18.00
2018-03-20T07:14:43.330Z,17.73
2018-03-20T07:15:45.873Z,18.15
2018-03-20T07:16:48.442Z,15.85
2018-03-20T07:17:50.966Z,27.45
2018-03-20T07:18:53.510Z,19.45
2018-03-20T07:19:56.033Z,21.10
2018-03-20T07:20:58.569Z,17.77
2018-03-20T07:22:01.142Z,15.70
2018-03-20T07:23:04.460Z,26.75
2018-03-20T07:24:07.765Z,17.98
2018-03-20T07:25:10.297Z,18.20
2018-03-20T07:26:12.825Z,20.37
2018-03-20T07:27:15.483Z,18.70
2018-03-20T07:28:18.038Z,19.77
2018-03-20T07:29:21.313Z,20.73
2018-03-20T07:30:24.618Z,20.80
2018-03-20T07:31:27.141Z,17.67
2018-03-20T07:32:29.697Z,16.33
2018-03-20T07:33:32.283Z,21.17
2018-03-20T07:34:35.576Z,19.90
2018-03-20T07:35:38.886Z,23.17
2018-03-20T07:36:41.425Z,18.95
2018-03-20T07:37:44.769Z,21.58
2018-03-20T07:38:47.299Z,26.62
2018-03-20T07:39:49.821Z,21.65
2018-03-20T07:40:52.345Z,18.95
2018-03-20T07:41:54.891Z,21.23
2018-03-20T07:42:57.450Z,23.05
2018-03-20T07:43:59.974Z,21.10
2018-03-20T07:45:02.509Z,22.70
2018-03-20T07:46:05.040Z,26.25
2018-03-20T07:47:08.330Z,25.67
2018-03-20T07:48:10.899Z,23.95
2018-03-20T07:49:13.469Z,25.67
2018-03-20T07:50:16.006Z,24.87
2018-03-20T07:51:18.542Z,24.90
2018-03-20T07:52:21.056Z,27.33
2018-03-20T07:53:24.353Z,27.77
2018-03-20T07:54:26.916Z,25.98
2018-03-20T07:55:29.451Z,24.20
2018-03-20T07:56:31.981Z,23.27
2018-03-20T07:57:34.504Z,28.38
2018-03-20T07:58:37.810Z,27.58
2018-03-20T07:59:40.402Z,21.67
2018-03-20T08:00:42.942Z,25.37
2018-03-20T08:01:45.464Z,33.92
2018-03-20T08:02:48.003Z,31.75
2018-03-20T08:03:50.534Z,33.50
2018-03-20T08:04:53.103Z,32.83
2018-03-20T08:05:55.631Z,25.00
2018-03-20T08:06:58.160Z,25.60
2018-03-20T08:08:00.686Z,29.95
2018-03-20T08:09:03.973Z,34.08
2018-03-20T08:10:06.542Z,24.30
2018-03-20T08:11:09.074Z,27.48
2018-03-20T08:12:11.597Z,30.55
2018-03-20T08:13:14.128Z,27.25
2018-03-20T08:14:16.668Z,31.50
2018-03-20T08:15:19.229Z,35.50
2018-03-20T08:16:21.752Z,27.90
2018-03-20T08:17:24.277Z,37.58
2018-03-20T08:18:26.842Z,25.25
2018-03-20T08:19:29.402Z,29.95
2018-03-20T08:20:31.913Z,25.70
2018-03-20T08:21:34.477Z,37.85
2018-03-20T08:22:37.009Z,26.70
2018-03-20T08:23:39.537Z,25.60
2018-03-20T08:24:42.078Z,25.40
2018-03-20T08:25:44.645Z,28.58
2018-03-20T08:26:47.182Z,27.60
2018-03-20T08:27:50.476Z,31.08
2018-03-20T08:28:53.762Z,24.58
2018-03-20T08:29:57.049Z,29.63
2018-03-20T08:30:59.638Z,27.90
2018-03-20T08:32:02.166Z,33.10
2018-03-20T08:33:05.452Z,27.13
2018-03-20T08:34:08.747Z,31.48
2018-03-20T08:35:11.282Z,33.92
2018-03-20T08:36:13.850Z,30.02
2018-03-20T08:37:16.381Z,32.42
2018-03-20T08:38:18.910Z,35.00
2018-03-20T08:39:22.236Z,22.87
2018-03-20T08:40:24.758Z,30.30
2018-03-20T08:41:28.086Z,30.37
2018-03-20T08:42:30.617Z,35.10
2018-03-20T08:43:33.958Z,35.45
2018-03-20T08:44:36.483Z,33.95
2018-03-20T08:45:39.008Z,28.42
2018-03-20T08:46:41.546Z,32.97
2018-03-20T08:47:44.085Z,31.15
2018-03-20T08:48:46.653Z,31.80
2018-03-20T08:49:49.183Z,30.05
2018-03-20T08:50:52.499Z,25.15
2018-03-20T08:51:55.014Z,32.33
2018-03-20T08:52:57.542Z,30.48
2018-03-20T08:54:00.101Z,29.83
2018-03-20T08:55:02.670Z,24.98
2018-03-20T08:56:05.190Z,26.30
2018-03-20T08:57:08.501Z,30.67
2018-03-20T08:58:11.028Z,30.80
2018-03-20T08:59:13.549Z,25.80
2018-03-20T09:00:16.209Z,29.20
2018-03-20T09:01:18.737Z,28.38
2018-03-20T09:02:21.263Z,35.10
2018-03-20T09:03:23.793Z,32.70
2018-03-20T09:04:26.329Z,26.65
2018-03-20T09:05:28.901Z,30.98
2018-03-20T09:06:31.425Z,27.25
2018-03-20T09:07:33.957Z,31.30
2018-03-20T09:08:36.677Z,33.95
2018-03-20T09:09:39.345Z,26.80
2018-03-20T09:10:41.874Z,27.62
2018-03-20T09:11:44.450Z,34.13
2018-03-20T09:12:46.972Z,27.27
2018-03-20T09:13:49.547Z,27.50
2018-03-20T09:14:52.837Z,34.05
2018-03-20T09:15:56.129Z,22.70
2018-03-20T09:16:59.425Z,28.90
2018-03-20T09:18:02.007Z,24.12
2018-03-20T09:19:04.528Z,26.17
2018-03-20T09:20:07.074Z,22.55
2018-03-20T09:21:09.597Z,27.08
2018-03-20T09:22:12.140Z,34.33
2018-03-20T09:23:15.474Z,33.30
2018-03-20T09:24:17.999Z,29.50
2018-03-20T09:25:21.298Z,36.20
2018-03-20T09:26:23.829Z,29.48
2018-03-20T09:27:26.358Z,29.42
2018-03-20T09:28:28.920Z,25.88
2018-03-20T09:29:31.445Z,27.83
2018-03-20T09:30:33.984Z,38.35
2018-03-20T09:31:36.504Z,32.38
2018-03-20T09:32:39.036Z,25.62
2018-03-20T09:33:42.352Z,30.55
2018-03-20T09:34:44.874Z,29.10
2018-03-20T09:35:47.396Z,28.92
2018-03-20T09:36:49.916Z,38.55
2018-03-20T09:37:53.249Z,41.47
2018-03-20T09:38:55.809Z,29.90
2018-03-20T09:39:58.350Z,25.98
2018-03-20T09:41:00.907Z,28.55
2018-03-20T09:43:13.197Z,31.80
2018-03-20T09:44:16.481Z,30.48
2018-03-20T09:45:19.769Z,32.30
2018-03-20T09:46:23.204Z,25.70
2018-03-20T09:47:25.729Z,30.88
2018-03-20T09:48:29.018Z,25.80
2018-03-20T09:49:32.300Z,27.87
2018-03-20T09:50:34.818Z,26.92
2018-03-20T09:51:37.377Z,24.55
2018-03-20T09:52:39.902Z,24.80
2018-03-20T09:53:42.465Z,27.70
2018-03-20T09:54:45.759Z,28.87
2018-03-20T09:55:48.282Z,24.83
2018-03-20T09:56:50.797Z,23.60
2018-03-20T09:57:53.338Z,24.52
2018-03-20T09:58:56.658Z,26.80
2018-03-20T09:59:59.177Z,27.08
2018-03-20T10:01:01.693Z,26.83
2018-03-20T10:02:04.256Z,35.95
2018-03-20T10:03:06.773Z,33.35
2018-03-20T10:04:10.068Z,25.90
2018-03-20T10:05:12.622Z,25.50
2018-03-20T10:06:15.918Z,31.40
2018-03-20T10:07:19.232Z,26.60
2018-03-20T10:08:21.766Z,26.05
2018-03-20T10:09:24.315Z,29.08
2018-03-20T10:10:26.890Z,28.12
2018-03-20T10:11:29.417Z,26.95
2018-03-20T10:12:31.940Z,26.87
2018-03-20T10:13:35.236Z,26.75
2018-03-20T10:14:37.765Z,28.17
2018-03-20T10:15:40.317Z,32.33
2018-03-20T10:16:42.838Z,27.35
2018-03-20T10:17:45.366Z,23.67
2018-03-20T10:18:47.935Z,29.17
2018-03-20T10:19:50.469Z,22.60
2018-03-20T10:20:52.993Z,23.90
2018-03-20T10:21:56.311Z,23.45
2018-03-20T10:22:58.886Z,29.20
2018-03-20T10:24:01.415Z,25.48
2018-03-20T10:25:03.984Z,28.10
2018-03-20T10:26:07.245Z,28.45
2018-03-20T10:27:10.538Z,24.27
2018-03-20T10:28:13.100Z,23.12
2018-03-20T10:29:15.640Z,25.80
2018-03-20T10:30:18.193Z,40.00
2018-03-20T10:31:20.724Z,27.37
2018-03-20T10:32:23.242Z,26.65
2018-03-20T10:33:25.767Z,20.42
2018-03-20T10:34:28.289Z,13.40
2018-03-20T10:35:31.609Z,14.52
2018-03-20T10:36:34.126Z,9.13
2018-03-20T10:37:36.662Z,12.57
2018-03-20T10:38:39.214Z,9.20
2018-03-20T10:39:41.738Z,8.93
2018-03-20T10:40:45.053Z,10.43
2018-03-20T10:41:47.568Z,9.55
2018-03-20T10:42:50.084Z,9.68
2018-03-20T10:43:52.790Z,12.90
2018-03-20T10:44:55.322Z,10.13
2018-03-20T10:45:57.838Z,12.10
2018-03-20T10:47:00.357Z,7.78
2018-03-20T10:48:02.877Z,8.88
2018-03-20T10:49:05.431Z,11.57
2018-03-20T10:50:07.941Z,8.48
2018-03-20T10:51:10.480Z,9.27
2018-03-20T10:52:13.761Z,8.45
2018-03-20T10:53:16.278Z,6.43
2018-03-20T10:54:18.837Z,11.40
2018-03-20T10:55:21.429Z,11.70
2018-03-20T10:56:23.941Z,10.05
2018-03-20T10:57:27.227Z,11.55
2018-03-20T10:58:30.520Z,11.07
2018-03-20T10:59:33.064Z,12.32
2018-03-20T11:00:38.601Z,11.10
2018-03-20T11:01:46.061Z,10.73
2018-03-20T11:02:52.613Z,12.55
2018-03-20T11:03:55.133Z,11.80
2018-03-20T11:04:57.659Z,10.52
2018-03-20T11:06:00.176Z,10.55
2018-03-20T11:07:02.690Z,10.60
2018-03-20T11:08:05.237Z,10.60
2018-03-20T11:09:07.762Z,13.43
2018-03-20T11:10:10.290Z,11.45
2018-03-20T11:11:12.802Z,7.85
2018-03-20T11:12:15.371Z,10.23
2018-03-20T11:13:17.885Z,9.45
2018-03-20T11:14:20.393Z,9.88
2018-03-20T11:15:22.920Z,11.05
2018-03-20T11:16:25.436Z,10.40
2018-03-20T11:17:27.994Z,12.75
2018-03-20T11:18:30.557Z,17.73
2018-03-20T11:19:33.072Z,18.37
2018-03-20T11:20:35.597Z,29.90
2018-03-20T11:21:38.112Z,14.10
2018-03-20T11:22:40.956Z,12.93
2018-03-20T11:23:43.515Z,20.58
2018-03-20T11:24:46.072Z,22.35
2018-03-20T11:25:48.584Z,12.23
2018-03-20T11:26:51.108Z,12.37
2018-03-20T11:27:53.621Z,11.65
2018-03-20T11:28:56.145Z,10.82
2018-03-20T11:29:58.714Z,8.82
2018-03-20T11:31:01.262Z,7.75
2018-03-20T11:32:03.776Z,8.18
2018-03-20T11:33:06.285Z,8.85
2018-03-20T11:34:08.799Z,9.50
2018-03-20T11:35:11.333Z,7.68
2018-03-20T11:36:13.883Z,8.15
2018-03-20T11:37:16.402Z,8.52
2018-03-20T11:38:18.935Z,7.37
2018-03-20T11:39:21.458Z,9.85
2018-03-20T11:40:24.753Z,11.73
2018-03-20T11:41:27.308Z,9.68
2018-03-20T11:42:29.819Z,8.20
2018-03-20T11:43:32.357Z,9.52
2018-03-20T11:44:35.676Z,9.90
2018-03-20T11:45:38.190Z,9.27
2018-03-20T11:46:41.476Z,7.00
2018-03-20T11:47:44.753Z,5.60
2018-03-20T11:48:47.313Z,5.12
2018-03-20T11:49:49.834Z,7.78
2018-03-20T11:50:52.352Z,8.95
2018-03-20T11:51:54.871Z,4.78
2018-03-20T11:52:57.433Z,7.20
2018-03-20T11:53:59.957Z,6.82
2018-03-20T11:55:03.365Z,6.35
2018-03-20T11:56:05.873Z,8.63
2018-03-20T11:57:08.388Z,7.93
2018-03-20T11:58:11.710Z,4.70
2018-03-20T11:59:14.237Z,4.70
2018-03-20T12:00:16.799Z,4.68
2018-03-20T12:01:20.081Z,4.32
2018-03-20T12:02:23.365Z,5.53
2018-03-20T12:03:26.654Z,7.10
2018-03-20T12:04:29.938Z,14.02
2018-03-20T12:05:33.257Z,4.95
2018-03-20T12:06:35.766Z,5.87
2018-03-20T12:07:50.117Z,4.25
2018-03-20T12:08:53.414Z,3.42
2018-03-20T12:09:56.700Z,3.60
2018-03-20T12:11:00.018Z,5.82
2018-03-20T12:12:02.537Z,6.80
2018-03-20T12:13:05.835Z,3.70
2018-03-20T12:14:08.363Z,5.12
2018-03-20T12:15:10.884Z,7.37
2018-03-20T12:16:13.444Z,7.03
2018-03-20T12:17:15.963Z,5.57
2018-03-20T12:18:18.472Z,5.03
2018-03-20T12:19:20.994Z,8.00
2018-03-20T12:20:23.512Z,4.82
2018-03-20T12:21:26.053Z,6.03
2018-03-20T12:22:29.336Z,4.72
2018-03-20T12:23:32.621Z,3.60
2018-03-20T12:24:35.913Z,3.42
2018-03-20T12:25:38.430Z,3.20
2018-03-20T12:26:40.977Z,4.30
2018-03-20T12:27:43.495Z,3.70
2018-03-20T12:28:46.778Z,3.58
2018-03-20T12:29:49.298Z,4.82
2018-03-20T12:30:51.838Z,3.90
2018-03-20T12:31:54.404Z,6.90
2018-03-20T12:32:56.933Z,4.03
2018-03-20T12:33:59.449Z,3.58
2018-03-20T12:35:01.961Z,4.62
2018-03-20T12:36:04.497Z,3.53
2018-03-20T12:37:07.049Z,3.20
2018-03-20T12:38:09.561Z,3.45
2018-03-20T12:39:12.089Z,4.47
2018-03-20T12:40:14.607Z,3.55
2018-03-20T12:41:17.896Z,3.65
2018-03-20T12:42:21.217Z,3.53
2018-03-20T12:43:23.732Z,4.47
2018-03-20T12:44:26.249Z,3.60
2018-03-20T12:45:28.834Z,4.15
2018-03-20T12:46:31.361Z,3.75
2018-03-20T12:47:33.870Z,3.75
2018-03-20T12:48:36.412Z,3.92
2018-03-20T12:49:38.925Z,4.30
2018-03-20T12:50:41.473Z,3.90
2018-03-20T12:51:43.985Z,4.45
2018-03-20T12:52:46.530Z,4.22
2018-03-20T12:53:49.813Z,4.55
2018-03-20T12:54:53.109Z,5.32
2018-03-20T12:55:56.437Z,7.65
2018-03-20T12:56:58.952Z,3.85
2018-03-20T12:58:02.228Z,3.60
2018-03-20T12:59:05.518Z,4.15
2018-03-20T13:00:08.794Z,5.97
2018-03-20T13:01:11.355Z,4.37
2018-03-20T13:02:13.884Z,6.97
2018-03-20T13:03:16.406Z,5.00
2018-03-20T13:04:19.682Z,3.17
2018-03-20T13:05:22.999Z,3.87
2018-03-20T13:06:25.545Z,3.80
2018-03-20T13:07:28.834Z,3.67
2018-03-20T13:08:31.390Z,3.33
2018-03-20T13:09:34.722Z,4.80
2018-03-20T13:10:37.251Z,6.80
2018-03-20T13:11:39.769Z,4.85
2018-03-20T13:12:43.029Z,3.85
2018-03-20T13:13:45.609Z,4.18
2018-03-20T13:14:48.134Z,11.02
2018-03-20T13:15:50.679Z,4.55
2018-03-20T13:16:53.965Z,9.10
2018-03-20T13:17:57.305Z,10.30
2018-03-20T13:18:59.826Z,4.78
2018-03-20T13:20:03.150Z,4.28
2018-03-20T13:21:05.673Z,7.03
2018-03-20T13:22:08.961Z,4.47
2018-03-20T13:23:12.261Z,3.25
2018-03-20T13:24:14.829Z,6.03
2018-03-20T13:25:17.347Z,7.68
2018-03-20T13:26:19.853Z,4.62
2018-03-20T13:27:22.379Z,3.80
2018-03-20T13:28:24.889Z,8.02
2018-03-20T13:29:27.475Z,6.50
2018-03-20T13:30:29.981Z,4.40
2018-03-20T13:31:32.511Z,20.88
2018-03-20T13:32:35.025Z,8.85
2018-03-20T13:33:37.552Z,10.38
2018-03-20T13:34:40.167Z,29.35
2018-03-20T13:35:43.458Z,72.78
2018-03-20T13:36:46.865Z,103.10
2018-03-20T13:37:49.387Z,56.45
2018-03-20T13:38:51.918Z,84.05
2018-03-20T13:39:54.488Z,57.95
2018-03-20T13:40:57.021Z,47.67